Time;durP1;ratioP1;P1;durP2;ratioP2;P2;SDS_P1;SDS_P2;PMS_P1;PMS_P2;Temp;Humidity;BMP_temperature;BMP_pressure;BME280_temperature;BME280_humidity;BME280_pressure;Samples;Min_cycle;Max_cycle;Signal;HPM_P1;HPM_P2
2022/06/05 00:01:58;0.00;0.00;0.62;0.00;0.00;0.62;4.40;4.00;;;27.00;23.00;;;;;;2271483;61;20400;-58
2022/06/05 00:04:59;0.00;0.00;0.62;0.00;0.00;0.62;4.57;4.17;;;27.00;23.10;;;;;;2272687;61;20932;-55
2022/06/05 00:07:52;0.00;0.00;0.62;0.00;0.00;0.62;6.47;4.83;;;27.00;23.20;;;;;;2273155;61;20454;-54
2022/06/05 00:10:46;0.00;0.00;0.62;0.00;0.00;0.62;3.93;3.63;;;27.00;23.30;;;;;;2272340;61;20433;-55
2022/06/05 00:13:43;0.00;0.00;0.62;0.00;0.00;0.62;3.60;3.23;;;27.00;23.30;;;;;;2272712;61;21003;-53
2022/06/05 00:16:29;0.00;0.00;0.62;0.00;0.00;0.62;5.07;4.00;;;27.00;23.30;;;;;;2272154;61;20378;-57
2022/06/05 00:19:14;0.00;0.00;0.62;0.00;0.00;0.62;4.07;3.70;;;26.90;23.30;;;;;;2272980;61;20447;-60
2022/06/05 00:21:59;0.00;0.00;0.62;0.00;0.00;0.62;4.50;4.10;;;26.90;23.30;;;;;;2271627;61;20384;-56
2022/06/05 00:24:46;0.00;0.00;0.62;0.00;0.00;0.62;5.53;4.20;;;26.90;23.30;;;;;;2271835;61;20397;-58
2022/06/05 00:27:41;0.00;0.00;0.62;0.00;0.00;0.62;3.90;3.53;;;26.90;23.30;;;;;;2272812;61;20826;-55
2022/06/05 00:30:32;0.00;0.00;0.62;0.00;0.00;0.62;5.10;4.63;;;26.80;23.80;;;;;;2271545;61;20381;-58
2022/06/05 00:33:27;0.00;0.00;0.62;0.00;0.00;0.62;5.87;5.30;;;26.80;23.20;;;;;;2272405;61;20361;-56
2022/06/05 00:36:27;0.00;0.00;0.62;0.00;0.00;0.62;4.90;4.40;;;26.80;23.40;;;;;;2272334;61;20404;-55
2022/06/05 00:39:18;0.00;0.00;0.62;0.00;0.00;0.62;9.13;4.20;;;26.80;23.50;;;;;;2271851;61;20385;-56
2022/06/05 00:42:08;0.00;0.00;0.62;0.00;0.00;0.62;4.97;4.40;;;26.80;23.70;;;;;;2272062;61;20358;-57
2022/06/05 00:44:56;0.00;0.00;0.62;0.00;0.00;0.62;5.17;4.67;;;26.70;23.70;;;;;;2271822;61;20367;-53
2022/06/05 00:47:43;0.00;0.00;0.62;0.00;0.00;0.62;5.47;4.87;;;26.70;23.70;;;;;;2272311;61;20458;-55
2022/06/05 00:50:32;0.00;0.00;0.62;0.00;0.00;0.62;4.60;4.20;;;26.70;23.80;;;;;;2271834;61;20997;-58
2022/06/05 00:53:16;0.00;0.00;0.62;0.00;0.00;0.62;7.50;4.73;;;26.60;23.80;;;;;;2271941;61;20424;-59
2022/06/05 00:56:01;0.00;0.00;0.62;0.00;0.00;0.62;4.80;4.40;;;26.60;23.80;;;;;;2272341;61;20374;-57
2022/06/05 00:58:47;0.00;0.00;0.62;0.00;0.00;0.62;5.30;4.80;;;26.60;23.90;;;;;;2272176;61;20706;-63
2022/06/05 01:01:32;0.00;0.00;0.62;0.00;0.00;0.62;5.10;4.60;;;26.60;24.00;;;;;;2271973;60;20885;-56
2022/06/05 01:04:18;0.00;0.00;0.62;0.00;0.00;0.62;6.07;5.10;;;26.60;24.00;;;;;;2272453;61;20404;-57
2022/06/05 01:07:04;0.00;0.00;0.62;0.00;0.00;0.62;4.60;4.13;;;26.50;24.10;;;;;;2272691;61;20397;-59
2022/06/05 01:09:50;0.00;0.00;0.62;0.00;0.00;0.62;4.80;4.30;;;26.50;24.10;;;;;;2272615;61;20393;-55
2022/06/05 01:12:54;0.00;0.00;0.62;0.00;0.00;0.62;5.23;4.73;;;26.50;24.10;;;;;;2272074;61;20358;-57
2022/06/05 01:15:53;0.00;0.00;0.62;0.00;0.00;0.62;5.13;4.37;;;26.50;24.20;;;;;;2276391;60;20381;-57
2022/06/05 01:18:48;0.00;0.00;0.62;0.00;0.00;0.62;4.90;4.50;;;26.50;24.70;;;;;;2277076;60;20400;-59
2022/06/05 01:22:13;0.00;0.00;0.62;0.00;0.00;0.62;5.23;4.70;;;26.50;24.30;;;;;;2276264;60;20353;-55
2022/06/05 01:25:23;0.00;0.00;0.62;0.00;0.00;0.62;5.17;4.70;;;26.50;24.30;;;;;;2276811;60;20427;-56
2022/06/05 01:28:16;0.00;0.00;0.62;0.00;0.00;0.62;4.93;4.43;;;26.40;24.30;;;;;;2273960;60;20349;-58
2022/06/05 01:31:11;0.00;0.00;0.62;0.00;0.00;0.62;5.23;4.73;;;26.40;24.30;;;;;;2276191;60;20416;-57
2022/06/05 01:34:09;0.00;0.00;0.62;0.00;0.00;0.62;4.57;3.97;;;26.40;24.40;;;;;;2277202;60;20827;-55
2022/06/05 01:37:00;0.00;0.00;0.62;0.00;0.00;0.62;6.20;4.93;;;26.40;24.40;;;;;;2276050;60;20381;-57
2022/06/05 01:39:49;0.00;0.00;0.62;0.00;0.00;0.62;4.87;4.47;;;26.40;24.50;;;;;;2276509;60;20921;-56
2022/06/05 01:42:38;0.00;0.00;0.62;0.00;0.00;0.62;4.67;4.27;;;26.30;24.50;;;;;;2276757;60;20777;-58
2022/06/05 01:45:33;0.00;0.00;0.62;0.00;0.00;0.62;4.80;4.37;;;26.30;24.50;;;;;;2276389;60;20353;-60
2022/06/05 01:48:23;0.00;0.00;0.62;0.00;0.00;0.62;5.43;4.93;;;26.30;24.50;;;;;;2277202;60;20460;-57
2022/06/05 01:51:15;0.00;0.00;0.62;0.00;0.00;0.62;5.50;4.53;;;26.30;24.60;;;;;;2275908;60;20381;-58
2022/06/05 01:54:07;0.00;0.00;0.62;0.00;0.00;0.62;5.90;5.30;;;26.30;24.60;;;;;;2276498;60;20357;-59
2022/06/05 01:56:56;0.00;0.00;0.62;0.00;0.00;0.62;4.93;4.53;;;26.30;24.60;;;;;;2277287;60;20416;-58
2022/06/05 01:59:47;0.00;0.00;0.62;0.00;0.00;0.62;5.33;4.83;;;26.30;24.60;;;;;;2275869;60;20749;-58
2022/06/05 02:02:44;0.00;0.00;0.62;0.00;0.00;0.62;5.50;5.00;;;26.30;24.70;;;;;;2276755;60;20474;-59
2022/06/05 02:05:36;0.00;0.00;0.62;0.00;0.00;0.62;5.77;5.17;;;26.20;24.60;;;;;;2276313;60;20400;-59
2022/06/05 02:08:27;0.00;0.00;0.62;0.00;0.00;0.62;4.60;4.20;;;26.20;24.60;;;;;;2276754;60;20854;-59
2022/06/05 02:11:18;0.00;0.00;0.62;0.00;0.00;0.62;6.13;5.53;;;26.30;24.70;;;;;;2276813;60;20381;-62
2022/06/05 02:14:07;0.00;0.00;0.62;0.00;0.00;0.62;6.70;5.27;;;26.20;24.70;;;;;;2274459;60;20944;-59
2022/06/05 02:16:52;0.00;0.00;0.62;0.00;0.00;0.62;5.67;4.80;;;26.20;24.70;;;;;;2272750;61;20375;-55
2022/06/05 02:19:39;0.00;0.00;0.62;0.00;0.00;0.62;5.40;4.83;;;26.20;24.80;;;;;;2272680;61;20783;-58
2022/06/05 02:22:29;0.00;0.00;0.62;0.00;0.00;0.62;5.50;4.97;;;26.20;24.80;;;;;;2271824;61;20773;-54
2022/06/05 02:25:16;0.00;0.00;0.62;0.00;0.00;0.62;5.67;5.17;;;26.20;24.80;;;;;;2273102;61;20398;-56
2022/06/05 02:28:01;0.00;0.00;0.62;0.00;0.00;0.62;5.90;5.40;;;26.20;24.80;;;;;;2272321;61;20751;-58
2022/06/05 02:30:57;0.00;0.00;0.62;0.00;0.00;0.62;5.27;4.77;;;26.20;24.90;;;;;;2272532;61;20378;-57
2022/06/05 02:33:56;0.00;0.00;0.62;0.00;0.00;0.62;5.40;4.80;;;26.20;24.90;;;;;;2272699;61;20412;-56
2022/06/05 02:36:52;0.00;0.00;0.62;0.00;0.00;0.62;6.00;4.90;;;26.10;24.80;;;;;;2272073;61;20394;-59
2022/06/05 02:39:45;0.00;0.00;0.62;0.00;0.00;0.62;5.90;5.40;;;26.20;24.90;;;;;;2272711;61;20363;-61
2022/06/05 02:42:35;0.00;0.00;0.62;0.00;0.00;0.62;5.97;5.37;;;26.20;25.00;;;;;;2271668;61;20491;-59
2022/06/05 02:45:26;0.00;0.00;0.62;0.00;0.00;0.62;5.67;5.10;;;26.10;24.90;;;;;;2272278;61;20358;-58
2022/06/05 02:48:20;0.00;0.00;0.62;0.00;0.00;0.62;6.27;5.00;;;26.10;25.00;;;;;;2272797;61;20361;-56
2022/06/05 02:51:13;0.00;0.00;0.62;0.00;0.00;0.62;4.83;4.43;;;26.10;25.00;;;;;;2271731;61;20381;-54
2022/06/05 02:54:00;0.00;0.00;0.62;0.00;0.00;0.62;5.23;4.73;;;26.10;25.60;;;;;;2271954;61;20362;-63
2022/06/05 02:56:44;0.00;0.00;0.62;0.00;0.00;0.62;5.40;4.87;;;26.10;25.10;;;;;;2272939;61;20382;-55
2022/06/05 02:59:29;0.00;0.00;0.62;0.00;0.00;0.62;5.70;4.87;;;26.10;25.10;;;;;;2271795;61;20841;-61
2022/06/05 03:05:18;0.00;0.00;0.62;0.00;0.00;0.62;5.93;4.70;;;26.10;25.20;;;;;;2272277;61;20747;-57
2022/06/05 03:08:04;0.00;0.00;0.62;0.00;0.00;0.62;6.50;5.37;;;26.00;25.10;;;;;;2271947;61;20405;-59
2022/06/05 03:10:50;0.00;0.00;0.62;0.00;0.00;0.62;6.73;5.20;;;26.00;25.20;;;;;;2272676;61;20439;-59
2022/06/05 03:13:34;0.00;0.00;0.62;0.00;0.00;0.62;5.50;5.00;;;26.00;25.20;;;;;;2272186;60;20415;-59
2022/06/05 03:16:19;0.00;0.00;0.62;0.00;0.00;0.62;5.27;4.87;;;26.00;25.20;;;;;;2276380;60;20951;-57
2022/06/05 03:19:04;0.00;0.00;0.62;0.00;0.00;0.62;7.67;5.30;;;26.00;25.20;;;;;;2276486;60;20345;-59
2022/06/05 03:21:48;0.00;0.00;0.62;0.00;0.00;0.62;5.10;4.70;;;26.00;25.20;;;;;;2274911;60;20415;-59
2022/06/05 03:24:33;0.00;0.00;0.62;0.00;0.00;0.62;5.00;4.60;;;26.00;25.30;;;;;;2276791;60;20471;-57
2022/06/05 03:27:20;0.00;0.00;0.62;0.00;0.00;0.62;5.07;4.67;;;26.00;25.30;;;;;;2275909;60;20376;-60
2022/06/05 03:30:06;0.00;0.00;0.62;0.00;0.00;0.62;5.97;5.47;;;26.00;25.30;;;;;;2275860;60;20370;-57
2022/06/05 03:32:51;0.00;0.00;0.62;0.00;0.00;0.62;5.07;4.57;;;26.00;25.30;;;;;;2276867;60;20407;-56
2022/06/05 03:35:36;0.00;0.00;0.62;0.00;0.00;0.62;5.70;5.20;;;26.00;25.90;;;;;;2275359;60;20927;-58
2022/06/05 03:38:21;0.00;0.00;0.62;0.00;0.00;0.62;5.70;5.20;;;26.00;25.50;;;;;;2276366;60;20400;-58
2022/06/05 03:41:08;0.00;0.00;0.62;0.00;0.00;0.62;5.47;4.93;;;26.00;25.50;;;;;;2276303;60;20357;-58
2022/06/05 03:43:54;0.00;0.00;0.62;0.00;0.00;0.62;5.80;5.23;;;26.00;25.50;;;;;;2274977;60;20765;-60
2022/06/05 03:46:40;0.00;0.00;0.62;0.00;0.00;0.62;6.83;5.50;;;26.00;25.50;;;;;;2276827;60;20385;-56
2022/06/05 03:49:24;0.00;0.00;0.62;0.00;0.00;0.62;5.73;5.20;;;25.90;25.40;;;;;;2275929;60;20360;-61
2022/06/05 03:52:10;0.00;0.00;0.62;0.00;0.00;0.62;5.20;4.60;;;26.00;25.50;;;;;;2275486;60;20389;-59
2022/06/05 03:54:55;0.00;0.00;0.62;0.00;0.00;0.62;6.77;6.17;;;25.90;25.50;;;;;;2276901;60;20449;-61
2022/06/05 03:57:40;0.00;0.00;0.62;0.00;0.00;0.62;5.77;5.13;;;25.90;25.60;;;;;;2275560;60;20898;-55
2022/06/05 04:00:26;0.00;0.00;0.62;0.00;0.00;0.62;6.10;5.60;;;25.90;25.60;;;;;;2275829;60;20360;-58
2022/06/05 04:03:11;0.00;0.00;0.62;0.00;0.00;0.62;4.87;4.47;;;25.90;25.60;;;;;;2276715;60;20401;-58
2022/06/05 04:05:55;0.00;0.00;0.62;0.00;0.00;0.62;5.47;5.07;;;25.90;25.60;;;;;;2275822;60;20469;-59
2022/06/05 04:08:40;0.00;0.00;0.62;0.00;0.00;0.62;6.30;5.70;;;25.90;25.70;;;;;;2276786;60;20354;-60
2022/06/05 04:11:28;0.00;0.00;0.62;0.00;0.00;0.62;4.67;4.27;;;25.90;25.70;;;;;;2275529;60;20384;-55
2022/06/05 04:14:13;0.00;0.00;0.62;0.00;0.00;0.62;5.30;4.80;;;25.80;25.70;;;;;;2274552;60;20369;-58
2022/06/05 04:16:59;0.00;0.00;0.62;0.00;0.00;0.62;5.80;5.20;;;25.80;25.60;;;;;;2272549;61;20797;-60
2022/06/05 04:19:44;0.00;0.00;0.62;0.00;0.00;0.62;6.07;4.77;;;25.80;25.60;;;;;;2271532;61;20369;-61
2022/06/05 04:22:29;0.00;0.00;0.62;0.00;0.00;0.62;4.87;4.47;;;25.80;25.70;;;;;;2271838;61;20397;-59
2022/06/05 04:25:14;0.00;0.00;0.62;0.00;0.00;0.62;7.10;4.90;;;25.80;25.70;;;;;;2272513;61;20361;-59
2022/06/05 04:27:59;0.00;0.00;0.62;0.00;0.00;0.62;4.90;4.40;;;25.80;25.70;;;;;;2271655;61;20851;-59
2022/06/05 04:30:44;0.00;0.00;0.62;0.00;0.00;0.62;5.23;4.83;;;25.80;25.70;;;;;;2272053;61;20405;-65
2022/06/05 04:33:32;0.00;0.00;0.62;0.00;0.00;0.62;5.13;4.73;;;25.70;25.60;;;;;;2271587;61;20442;-60
2022/06/05 04:36:17;0.00;0.00;0.62;0.00;0.00;0.62;5.23;4.83;;;25.70;25.70;;;;;;2272312;60;20386;-57
2022/06/05 04:39:03;0.00;0.00;0.62;0.00;0.00;0.62;5.37;4.87;;;25.70;25.70;;;;;;2273362;61;20407;-60
2022/06/05 04:41:48;0.00;0.00;0.62;0.00;0.00;0.62;5.47;4.60;;;25.70;25.70;;;;;;2271906;61;20453;-60
2022/06/05 04:44:33;0.00;0.00;0.62;0.00;0.00;0.62;4.97;4.57;;;25.70;25.70;;;;;;2272760;61;20357;-58
2022/06/05 04:47:18;0.00;0.00;0.62;0.00;0.00;0.62;5.30;4.80;;;25.70;25.80;;;;;;2273206;61;20408;-60
2022/06/05 04:50:05;0.00;0.00;0.62;0.00;0.00;0.62;5.97;5.37;;;25.70;25.80;;;;;;2272640;61;20457;-60
2022/06/05 04:52:50;0.00;0.00;0.62;0.00;0.00;0.62;5.17;4.70;;;25.60;25.70;;;;;;2273029;61;20401;-60
2022/06/05 04:55:36;0.00;0.00;0.62;0.00;0.00;0.62;5.67;4.97;;;25.60;25.70;;;;;;2272730;61;20416;-60
2022/06/05 04:58:21;0.00;0.00;0.62;0.00;0.00;0.62;5.73;4.40;;;25.60;25.70;;;;;;2272550;61;20358;-57
2022/06/05 05:01:10;0.00;0.00;0.62;0.00;0.00;0.62;4.90;4.50;;;25.60;25.80;;;;;;2272400;61;20334;-57
2022/06/05 05:03:58;0.00;0.00;0.62;0.00;0.00;0.62;5.10;4.60;;;25.60;25.70;;;;;;2272084;61;20353;-57
2022/06/05 05:06:45;0.00;0.00;0.62;0.00;0.00;0.62;4.90;4.40;;;25.50;25.70;;;;;;2272674;61;20409;-60
2022/06/05 05:09:30;0.00;0.00;0.62;0.00;0.00;0.62;5.20;4.70;;;25.60;25.80;;;;;;2272982;61;20768;-55
2022/06/05 05:12:16;0.00;0.00;0.62;0.00;0.00;0.62;5.10;4.43;;;25.50;25.80;;;;;;2271615;61;20941;-59
2022/06/05 05:15:00;0.00;0.00;0.62;0.00;0.00;0.62;4.97;4.57;;;25.50;25.80;;;;;;2276238;60;20364;-55
2022/06/05 05:17:45;0.00;0.00;0.62;0.00;0.00;0.62;4.20;3.70;;;25.50;25.80;;;;;;2276716;60;20442;-56
2022/06/05 05:20:29;0.00;0.00;0.62;0.00;0.00;0.62;4.57;4.17;;;25.50;25.80;;;;;;2275966;60;20771;-63
2022/06/05 05:23:16;0.00;0.00;0.62;0.00;0.00;0.62;4.30;3.90;;;25.50;25.80;;;;;;2276944;60;20396;-59
2022/06/05 05:26:10;0.00;0.00;0.62;0.00;0.00;0.62;4.30;3.90;;;25.50;25.80;;;;;;2276101;60;20389;-56
2022/06/05 05:28:56;0.00;0.00;0.62;0.00;0.00;0.62;4.87;4.47;;;25.50;25.90;;;;;;2276847;60;20770;-56
2022/06/05 05:31:44;0.00;0.00;0.62;0.00;0.00;0.62;4.43;4.13;;;25.50;25.90;;;;;;2276451;60;20462;-57
2022/06/05 05:34:29;0.00;0.00;0.62;0.00;0.00;0.62;4.83;4.37;;;25.50;26.00;;;;;;2276140;60;20442;-58
2022/06/05 05:37:14;0.00;0.00;0.62;0.00;0.00;0.62;4.73;4.30;;;25.50;26.00;;;;;;2276930;60;20377;-60
2022/06/05 05:43:04;0.00;0.00;0.62;0.00;0.00;0.62;5.10;4.60;;;25.50;26.00;;;;;;2276658;60;20817;-58
2022/06/05 05:45:49;0.00;0.00;0.62;0.00;0.00;0.62;5.50;5.00;;;25.50;26.00;;;;;;2277097;60;20463;-63
2022/06/05 05:48:33;0.00;0.00;0.62;0.00;0.00;0.62;5.30;4.80;;;25.50;26.00;;;;;;2276007;60;20928;-54
2022/06/05 05:51:18;0.00;0.00;0.62;0.00;0.00;0.62;5.20;4.80;;;25.50;26.00;;;;;;2276138;60;20944;-57
2022/06/05 05:54:04;0.00;0.00;0.62;0.00;0.00;0.62;5.87;4.23;;;25.50;26.50;;;;;;2276992;60;20418;-60
2022/06/05 05:56:51;0.00;0.00;0.62;0.00;0.00;0.62;4.97;4.47;;;25.50;26.00;;;;;;2276169;60;20422;-57
2022/06/05 05:59:37;0.00;0.00;0.62;0.00;0.00;0.62;5.80;4.87;;;25.50;26.00;;;;;;2276827;60;20393;-56
2022/06/05 06:02:25;0.00;0.00;0.62;0.00;0.00;0.62;6.40;4.27;;;25.50;26.00;;;;;;2276101;60;20361;-56
2022/06/05 06:05:14;0.00;0.00;0.62;0.00;0.00;0.62;5.77;4.63;;;25.50;26.10;;;;;;2276244;60;20353;-61
2022/06/05 06:07:59;0.00;0.00;0.62;0.00;0.00;0.62;4.87;4.37;;;25.50;26.10;;;;;;2277008;60;20380;-57
2022/06/05 06:10:44;0.00;0.00;0.62;0.00;0.00;0.62;5.33;4.83;;;25.50;26.10;;;;;;2275611;60;20443;-62
2022/06/05 06:13:30;0.00;0.00;0.62;0.00;0.00;0.62;5.30;4.80;;;25.50;26.10;;;;;;2275795;60;20407;-58
2022/06/05 06:16:14;0.00;0.00;0.62;0.00;0.00;0.62;4.60;4.20;;;25.50;26.10;;;;;;2272941;61;20378;-56
2022/06/05 06:18:59;0.00;0.00;0.62;0.00;0.00;0.62;4.93;4.53;;;25.50;26.10;;;;;;2271940;61;20771;-57
2022/06/05 06:21:44;0.00;0.00;0.62;0.00;0.00;0.62;4.23;3.90;;;25.50;26.20;;;;;;2272292;61;20354;-61
2022/06/05 06:24:29;0.00;0.00;0.62;0.00;0.00;0.62;5.03;4.60;;;25.50;26.20;;;;;;2271514;61;20391;-60
2022/06/05 06:27:14;0.00;0.00;0.62;0.00;0.00;0.62;5.30;4.80;;;25.50;26.20;;;;;;2272042;61;20463;-56
2022/06/05 06:30:00;0.00;0.00;0.62;0.00;0.00;0.62;4.83;4.43;;;25.50;26.20;;;;;;2272800;61;20359;-59
2022/06/05 06:32:45;0.00;0.00;0.62;0.00;0.00;0.62;4.83;4.33;;;25.60;26.30;;;;;;2271678;61;20381;-60
2022/06/05 06:35:29;0.00;0.00;0.62;0.00;0.00;0.62;4.87;4.47;;;25.60;26.30;;;;;;2272299;61;20424;-54
2022/06/05 06:38:14;0.00;0.00;0.62;0.00;0.00;0.62;5.70;4.40;;;25.50;26.30;;;;;;2272448;61;20493;-57
2022/06/05 06:41:01;0.00;0.00;0.62;0.00;0.00;0.62;4.63;4.27;;;25.60;26.40;;;;;;2271524;61;20362;-58
2022/06/05 06:43:47;0.00;0.00;0.62;0.00;0.00;0.62;5.30;4.90;;;25.60;26.50;;;;;;2272747;61;21004;-57
2022/06/05 06:46:36;0.00;0.00;0.62;0.00;0.00;0.62;5.90;5.30;;;25.60;26.60;;;;;;2271867;61;20983;-56
2022/06/05 06:49:21;0.00;0.00;0.62;0.00;0.00;0.62;4.63;4.23;;;25.60;26.60;;;;;;2272108;61;20382;-59
2022/06/05 06:52:06;0.00;0.00;0.62;0.00;0.00;0.62;5.50;5.00;;;25.60;26.60;;;;;;2272254;61;20398;-58
2022/06/05 06:54:53;0.00;0.00;0.62;0.00;0.00;0.62;5.33;4.83;;;25.60;27.20;;;;;;2271914;61;21005;-57
2022/06/05 06:57:37;0.00;0.00;0.62;0.00;0.00;0.62;5.33;4.80;;;25.60;26.70;;;;;;2272348;61;20366;-54
2022/06/05 07:00:22;0.00;0.00;0.62;0.00;0.00;0.62;5.13;4.63;;;25.60;26.80;;;;;;2272248;61;20962;-56
2022/06/05 07:03:08;0.00;0.00;0.62;0.00;0.00;0.62;4.67;4.27;;;25.60;26.90;;;;;;2268594;61;20395;-55
2022/06/05 07:05:53;0.00;0.00;0.62;0.00;0.00;0.62;6.07;5.03;;;25.60;26.90;;;;;;2268212;61;20382;-52
2022/06/05 07:08:38;0.00;0.00;0.62;0.00;0.00;0.62;5.50;5.00;;;25.60;26.90;;;;;;2268028;61;20358;-56
2022/06/05 07:11:23;0.00;0.00;0.62;0.00;0.00;0.62;5.67;5.17;;;25.60;27.00;;;;;;2267405;61;20382;-55
2022/06/05 07:14:09;0.00;0.00;0.62;0.00;0.00;0.62;5.30;4.80;;;25.60;27.10;;;;;;2271857;60;20368;-57
2022/06/05 07:16:55;0.00;0.00;0.62;0.00;0.00;0.62;4.90;4.43;;;25.70;27.10;;;;;;2276107;60;20657;-56
2022/06/05 07:19:42;0.00;0.00;0.62;0.00;0.00;0.62;6.03;5.30;;;25.70;27.30;;;;;;2276352;60;20430;-54
2022/06/05 07:22:27;0.00;0.00;0.62;0.00;0.00;0.62;5.23;4.73;;;25.60;27.20;;;;;;2276386;60;20806;-56
2022/06/05 07:25:11;0.00;0.00;0.62;0.00;0.00;0.62;5.47;5.00;;;25.70;27.30;;;;;;2274453;60;20423;-56
2022/06/05 07:27:57;0.00;0.00;0.62;0.00;0.00;0.62;6.73;5.17;;;25.70;27.20;;;;;;2272394;60;20362;-55
2022/06/05 07:30:45;0.00;0.00;0.62;0.00;0.00;0.62;5.20;4.70;;;25.70;27.40;;;;;;2272269;61;20857;-59
2022/06/05 07:33:31;0.00;0.00;0.62;0.00;0.00;0.62;5.87;5.37;;;25.70;27.40;;;;;;2271477;60;20362;-59
2022/06/05 07:36:20;0.00;0.00;0.62;0.00;0.00;0.62;5.87;5.37;;;25.70;27.50;;;;;;2272830;60;20917;-57
2022/06/05 07:39:05;0.00;0.00;0.62;0.00;0.00;0.62;5.20;4.70;;;25.70;27.60;;;;;;2271789;61;20366;-57
2022/06/05 07:41:50;0.00;0.00;0.62;0.00;0.00;0.62;6.90;5.53;;;25.70;27.70;;;;;;2271894;60;20399;-51
2022/06/05 07:44:36;0.00;0.00;0.62;0.00;0.00;0.62;4.90;4.40;;;25.70;27.70;;;;;;2272361;60;20769;-51
2022/06/05 07:47:21;0.00;0.00;0.62;0.00;0.00;0.62;4.90;4.50;;;25.70;27.80;;;;;;2271598;61;20431;-56
2022/06/05 07:50:07;0.00;0.00;0.62;0.00;0.00;0.62;4.90;4.40;;;25.70;27.70;;;;;;2272225;60;20393;-54
2022/06/05 07:55:57;0.00;0.00;0.62;0.00;0.00;0.62;5.40;4.90;;;25.80;27.70;;;;;;2271077;60;20838;-61
2022/06/05 07:58:42;0.00;0.00;0.62;0.00;0.00;0.62;4.17;3.77;;;25.80;27.60;;;;;;2272018;60;20366;-56
2022/06/05 08:01:27;0.00;0.00;0.62;0.00;0.00;0.62;4.60;4.20;;;25.80;27.60;;;;;;2271566;60;20359;-58
2022/06/05 08:04:13;0.00;0.00;0.62;0.00;0.00;0.62;4.50;4.10;;;25.80;27.50;;;;;;2272256;60;20370;-58
2022/06/05 08:07:01;0.00;0.00;0.62;0.00;0.00;0.62;4.67;4.27;;;25.90;27.50;;;;;;2272430;60;20933;-55
2022/06/05 08:09:47;0.00;0.00;0.62;0.00;0.00;0.62;4.20;3.90;;;25.90;27.50;;;;;;2271795;60;20358;-52
2022/06/05 08:12:35;0.00;0.00;0.62;0.00;0.00;0.62;4.63;4.23;;;25.90;27.50;;;;;;2271677;60;20429;-53
2022/06/05 08:15:20;0.00;0.00;0.62;0.00;0.00;0.62;5.17;4.77;;;26.00;27.50;;;;;;2275901;60;20923;-53
2022/06/05 08:18:05;0.00;0.00;0.62;0.00;0.00;0.62;5.00;4.50;;;26.00;27.50;;;;;;2275969;60;20362;-50
2022/06/05 08:20:51;0.00;0.00;0.62;0.00;0.00;0.62;4.90;4.40;;;26.00;27.60;;;;;;2276154;60;20357;-52
2022/06/05 08:23:36;0.00;0.00;0.62;0.00;0.00;0.62;4.83;4.43;;;26.10;27.80;;;;;;2276390;60;20893;-53
2022/06/05 08:26:22;0.00;0.00;0.62;0.00;0.00;0.62;4.40;4.00;;;26.10;27.70;;;;;;2276567;60;20405;-62
2022/06/05 08:29:08;0.00;0.00;0.62;0.00;0.00;0.62;4.80;4.40;;;26.10;27.70;;;;;;2276557;60;20773;-64
2022/06/05 08:31:53;0.00;0.00;0.62;0.00;0.00;0.62;3.63;3.33;;;26.10;27.80;;;;;;2275275;60;20944;-60
2022/06/05 08:34:38;0.00;0.00;0.62;0.00;0.00;0.62;4.63;4.23;;;26.20;27.70;;;;;;2275845;60;20358;-54
2022/06/05 08:43:44;0.00;0.00;0.62;0.00;0.00;0.62;4.30;3.90;;;26.20;27.80;;;;;;2276420;60;20403;-46
2022/06/05 08:46:36;0.00;0.00;0.62;0.00;0.00;0.62;3.73;3.43;;;26.30;27.80;;;;;;2275551;60;20377;-59
2022/06/05 08:49:36;0.00;0.00;0.62;0.00;0.00;0.62;4.27;3.87;;;26.30;27.80;;;;;;2276439;60;20361;-54
2022/06/05 08:52:27;0.00;0.00;0.62;0.00;0.00;0.62;4.70;4.30;;;26.30;27.70;;;;;;2275531;60;20474;-59
2022/06/05 08:55:20;0.00;0.00;0.62;0.00;0.00;0.62;4.23;3.83;;;26.40;27.70;;;;;;2275997;60;20821;-46
2022/06/05 08:58:15;0.00;0.00;0.62;0.00;0.00;0.62;5.43;4.90;;;26.40;27.70;;;;;;2276535;60;20376;-62
2022/06/05 09:01:09;0.00;0.00;0.62;0.00;0.00;0.62;5.27;4.83;;;26.50;27.90;;;;;;2275055;60;20452;-56
2022/06/05 09:04:04;0.00;0.00;0.62;0.00;0.00;0.62;5.83;5.33;;;26.50;27.90;;;;;;2276073;60;20820;-55
2022/06/05 09:06:54;0.00;0.00;0.62;0.00;0.00;0.62;5.20;4.77;;;26.50;27.90;;;;;;2275745;60;20469;-52
2022/06/05 09:09:45;0.00;0.00;0.62;0.00;0.00;0.62;5.47;4.97;;;26.60;28.10;;;;;;2271634;60;20366;-54
2022/06/05 09:12:40;0.00;0.00;0.62;0.00;0.00;0.62;7.30;5.20;;;26.60;28.20;;;;;;2272190;60;20432;-52
2022/06/05 09:15:31;0.00;0.00;0.62;0.00;0.00;0.62;5.43;4.93;;;26.60;28.20;;;;;;2274736;60;20365;-53
2022/06/05 09:18:20;0.00;0.00;0.62;0.00;0.00;0.62;5.00;4.60;;;26.60;28.40;;;;;;2275654;60;20962;-52
2022/06/05 09:21:12;0.00;0.00;0.62;0.00;0.00;0.62;5.63;5.13;;;26.70;28.30;;;;;;2276583;60;20393;-56
2022/06/05 09:24:08;0.00;0.00;0.62;0.00;0.00;0.62;5.43;4.90;;;26.70;28.30;;;;;;2275914;60;20386;-50
2022/06/05 09:26:59;0.00;0.00;0.62;0.00;0.00;0.62;6.33;5.67;;;26.70;28.40;;;;;;2277466;60;20777;-51
2022/06/05 09:29:52;0.00;0.00;0.62;0.00;0.00;0.62;6.07;5.07;;;26.80;28.40;;;;;;2276103;60;20376;-54
2022/06/05 09:32:56;0.00;0.00;0.62;0.00;0.00;0.62;5.80;5.20;;;26.80;28.30;;;;;;2276269;60;20381;-51
2022/06/05 09:35:47;0.00;0.00;0.62;0.00;0.00;0.62;5.37;4.87;;;26.80;28.20;;;;;;2277175;60;20428;-53
2022/06/05 09:38:43;0.00;0.00;0.62;0.00;0.00;0.62;5.07;4.63;;;26.80;28.20;;;;;;2276228;60;20373;-59
2022/06/05 09:41:44;0.00;0.00;0.62;0.00;0.00;0.62;4.20;3.90;;;26.80;28.10;;;;;;2276972;60;20353;-51
2022/06/05 09:44:50;0.00;0.00;0.62;0.00;0.00;0.62;4.83;4.43;;;26.80;28.10;;;;;;2276094;60;20361;-52
2022/06/05 09:47:46;0.00;0.00;0.62;0.00;0.00;0.62;4.57;4.17;;;26.90;28.00;;;;;;2276725;60;20415;-48
2022/06/05 09:50:31;0.00;0.00;0.62;0.00;0.00;0.62;4.33;4.03;;;26.90;28.00;;;;;;2276060;60;20406;-50
2022/06/05 09:53:26;0.00;0.00;0.62;0.00;0.00;0.62;5.00;4.50;;;26.90;27.90;;;;;;2275857;60;20400;-49
2022/06/05 09:56:22;0.00;0.00;0.62;0.00;0.00;0.62;5.20;4.43;;;26.90;27.90;;;;;;2276964;60;20378;-52
2022/06/05 09:59:20;0.00;0.00;0.62;0.00;0.00;0.62;4.47;4.07;;;27.00;27.90;;;;;;2276086;60;20346;-55
2022/06/05 10:02:07;0.00;0.00;0.62;0.00;0.00;0.62;4.67;4.27;;;27.00;28.00;;;;;;2276183;60;20458;-50
2022/06/05 10:04:53;0.00;0.00;0.62;0.00;0.00;0.62;4.37;3.97;;;27.00;27.90;;;;;;2277225;60;20415;-48
2022/06/05 10:07:44;0.00;0.00;0.62;0.00;0.00;0.62;4.40;4.10;;;27.00;27.90;;;;;;2275962;60;20387;-51
2022/06/05 10:10:38;0.00;0.00;0.62;0.00;0.00;0.62;5.03;3.87;;;27.00;27.90;;;;;;2276075;60;20449;-48
2022/06/05 10:13:44;0.00;0.00;0.62;0.00;0.00;0.62;4.77;4.30;;;27.10;27.90;;;;;;2276415;60;20877;-49
2022/06/05 10:16:40;0.00;0.00;0.62;0.00;0.00;0.62;4.30;3.90;;;27.10;27.80;;;;;;2272268;61;20390;-51
2022/06/05 10:19:50;0.00;0.00;0.62;0.00;0.00;0.62;4.37;4.00;;;27.10;27.80;;;;;;2272899;61;20508;-60
2022/06/05 10:22:43;0.00;0.00;0.62;0.00;0.00;0.62;5.20;4.70;;;27.10;27.80;;;;;;2271447;61;20355;-53
2022/06/05 10:25:35;0.00;0.00;0.62;0.00;0.00;0.62;3.63;3.33;;;27.20;27.80;;;;;;2272653;61;20401;-51
2022/06/05 10:28:26;0.00;0.00;0.62;0.00;0.00;0.62;4.77;4.10;;;27.20;27.80;;;;;;2272041;61;20427;-51
2022/06/05 10:31:22;0.00;0.00;0.62;0.00;0.00;0.62;3.90;3.50;;;27.20;27.80;;;;;;2271738;61;20471;-50
2022/06/05 10:34:22;0.00;0.00;0.62;0.00;0.00;0.62;4.10;3.80;;;27.20;27.70;;;;;;2272687;60;20891;-51
2022/06/05 10:37:23;0.00;0.00;0.62;0.00;0.00;0.62;4.10;3.80;;;27.20;27.70;;;;;;2271637;61;20444;-51
2022/06/05 10:40:20;0.00;0.00;0.62;0.00;0.00;0.62;4.23;3.87;;;27.20;27.70;;;;;;2272557;61;20848;-50
2022/06/05 10:43:16;0.00;0.00;0.62;0.00;0.00;0.62;3.60;3.30;;;27.30;27.80;;;;;;2272663;61;20420;-55
2022/06/05 10:46:05;0.00;0.00;0.62;0.00;0.00;0.62;3.93;3.63;;;27.30;27.70;;;;;;2272257;61;20390;-48
2022/06/05 10:48:56;0.00;0.00;0.62;0.00;0.00;0.62;4.73;4.33;;;27.30;27.70;;;;;;2272546;61;20389;-53
2022/06/05 10:51:50;0.00;0.00;0.62;0.00;0.00;0.62;4.33;3.93;;;27.30;27.70;;;;;;2271409;61;20381;-52
2022/06/05 10:54:40;0.00;0.00;0.62;0.00;0.00;0.62;4.40;4.00;;;27.40;27.70;;;;;;2272186;61;20409;-52
2022/06/05 10:57:32;0.00;0.00;0.62;0.00;0.00;0.62;4.20;3.90;;;27.40;27.70;;;;;;2272809;61;20829;-50
2022/06/05 11:00:24;0.00;0.00;0.62;0.00;0.00;0.62;4.23;3.90;;;27.40;27.70;;;;;;2271845;61;20404;-52
2022/06/05 11:03:20;0.00;0.00;0.62;0.00;0.00;0.62;4.47;4.07;;;27.40;27.70;;;;;;2273032;61;20366;-58
2022/06/05 11:06:21;0.00;0.00;0.62;0.00;0.00;0.62;4.87;4.47;;;27.40;27.60;;;;;;2272120;61;20432;-47
2022/06/05 11:09:27;0.00;0.00;0.62;0.00;0.00;0.62;4.60;4.20;;;27.50;27.70;;;;;;2271236;61;20350;-51
2022/06/05 11:15:35;0.00;0.00;0.62;0.00;0.00;0.62;4.10;3.70;;;27.50;27.70;;;;;;2275808;60;20964;-46
2022/06/05 11:18:28;0.00;0.00;0.62;0.00;0.00;0.62;4.97;4.57;;;27.60;27.70;;;;;;2276973;60;20817;-45
2022/06/05 11:21:18;0.00;0.00;0.62;0.00;0.00;0.62;4.87;4.47;;;27.60;27.60;;;;;;2275775;60;20884;-48
2022/06/05 11:24:09;0.00;0.00;0.62;0.00;0.00;0.62;4.10;3.80;;;27.60;27.60;;;;;;2276343;60;20369;-48
2022/06/05 11:27:06;0.00;0.00;0.62;0.00;0.00;0.62;4.87;4.47;;;27.60;27.60;;;;;;2276987;60;20469;-52